sensor_id;sensor_type;location;lat;lon;timestamp;pressure;altitude;pressure_sealevel;temperature;humidity
69402;BME280;56589;51.992;5.924;2023-03-01T00:01:34;102585.22;;;-0.01;53.20
69402;BME280;56589;51.992;5.924;2023-03-01T00:04:00;102593.78;;;-0.02;53.37
69402;BME280;56589;51.992;5.924;2023-03-01T00:06:26;102586.88;;;-0.06;53.31
69402;BME280;56589;51.992;5.924;2023-03-01T00:08:55;102584.31;;;-0.08;53.38
69402;BME280;56589;51.992;5.924;2023-03-01T00:11:23;102579.09;;;-0.09;53.95
69402;BME280;56589;51.992;5.924;2023-03-01T00:13:52;102579.94;;;-0.12;53.83
69402;BME280;56589;51.992;5.924;2023-03-01T00:16:24;102573.03;;;-0.16;53.96
69402;BME280;56589;51.992;5.924;2023-03-01T00:18:53;102569.56;;;-0.16;54.01
69402;BME280;56589;51.992;5.924;2023-03-01T00:21:20;102573.03;;;-0.16;53.96
69402;BME280;56589;51.992;5.924;2023-03-01T00:23:47;102569.56;;;-0.18;54.27
69402;BME280;56589;51.992;5.924;2023-03-01T00:26:17;102556.66;;;-0.20;54.19
69402;BME280;56589;51.992;5.924;2023-03-01T00:28:45;102557.47;;;-0.21;54.11
69402;BME280;56589;51.992;5.924;2023-03-01T00:31:13;102554.06;;;-0.20;53.96
69402;BME280;56589;51.992;5.924;2023-03-01T00:33:40;102554.91;;;-0.21;53.96
69402;BME280;56589;51.992;5.924;2023-03-01T00:36:07;102562.63;;;-0.22;54.42
69402;BME280;56589;51.992;5.924;2023-03-01T00:38:35;102560.91;;;-0.23;53.93
69402;BME280;56589;51.992;5.924;2023-03-01T00:41:03;102559.19;;;-0.26;54.42
69402;BME280;56589;51.992;5.924;2023-03-01T00:43:33;102561.72;;;-0.27;54.19
69402;BME280;56589;51.992;5.924;2023-03-01T00:46:00;102566.88;;;-0.29;54.36
69402;BME280;56589;51.992;5.924;2023-03-01T00:48:26;102565.16;;;-0.31;54.37
69402;BME280;56589;51.992;5.924;2023-03-01T00:50:52;102560.81;;;-0.34;54.34
69402;BME280;56589;51.992;5.924;2023-03-01T00:53:18;102550.47;;;-0.38;54.54
69402;BME280;56589;51.992;5.924;2023-03-01T00:55:44;102550.41;;;-0.41;54.77
69402;BME280;56589;51.992;5.924;2023-03-01T00:58:10;102549.56;;;-0.43;54.65
69402;BME280;56589;51.992;5.924;2023-03-01T01:00:38;102541.75;;;-0.47;54.67
69402;BME280;56589;51.992;5.924;2023-03-01T01:03:04;102534.88;;;-0.49;55.03
69402;BME280;56589;51.992;5.924;2023-03-01T01:05:30;102538.25;;;-0.53;54.84
69402;BME280;56589;51.992;5.924;2023-03-01T01:07:56;102539.97;;;-0.54;55.25
69402;BME280;56589;51.992;5.924;2023-03-01T01:10:22;102527.06;;;-0.57;55.00
69402;BME280;56589;51.992;5.924;2023-03-01T01:12:48;102527.88;;;-0.61;54.83
69402;BME280;56589;51.992;5.924;2023-03-01T01:15:14;102529.53;;;-0.67;55.14
69402;BME280;56589;51.992;5.924;2023-03-01T01:17:42;102523.44;;;-0.74;55.49
69402;BME280;56589;51.992;5.924;2023-03-01T01:20:10;102525.97;;;-0.80;55.51
69402;BME280;56589;51.992;5.924;2023-03-01T01:22:36;102524.16;;;-0.86;55.57
69402;BME280;56589;51.992;5.924;2023-03-01T01:25:02;102518.09;;;-0.89;55.44
69402;BME280;56589;51.992;5.924;2023-03-01T01:27:29;102518.94;;;-0.90;55.82
69402;BME280;56589;51.992;5.924;2023-03-01T01:29:55;102520.59;;;-0.95;55.91
69402;BME280;56589;51.992;5.924;2023-03-01T01:32:21;102508.56;;;-0.99;55.52
69402;BME280;56589;51.992;5.924;2023-03-01T01:34:50;102505.91;;;-1.03;56.02
69402;BME280;56589;51.992;5.924;2023-03-01T01:37:16;102517.94;;;-1.05;56.47
69402;BME280;56589;51.992;5.924;2023-03-01T01:39:42;102511.88;;;-1.08;56.29
69402;BME280;56589;51.992;5.924;2023-03-01T01:42:12;102511.00;;;-1.10;56.55
69402;BME280;56589;51.992;5.924;2023-03-01T01:44:42;102503.19;;;-1.15;56.71
69402;BME280;56589;51.992;5.924;2023-03-01T01:47:14;102506.63;;;-1.16;56.82
69402;BME280;56589;51.992;5.924;2023-03-01T01:49:45;102508.28;;;-1.19;56.70
69402;BME280;56589;51.992;5.924;2023-03-01T01:52:19;102505.69;;;-1.22;56.44
69402;BME280;56589;51.992;5.924;2023-03-01T01:54:51;102508.25;;;-1.24;56.60
69402;BME280;56589;51.992;5.924;2023-03-01T01:57:25;102512.50;;;-1.26;56.70
69402;BME280;56589;51.992;5.924;2023-03-01T02:00:03;102513.34;;;-1.30;57.22
69402;BME280;56589;51.992;5.924;2023-03-01T02:02:31;102505.59;;;-1.30;57.03
69402;BME280;56589;51.992;5.924;2023-03-01T02:05:02;102500.47;;;-1.30;57.17
69402;BME280;56589;51.992;5.924;2023-03-01T02:07:38;102511.56;;;-1.33;57.35
69402;BME280;56589;51.992;5.924;2023-03-01T02:10:06;102504.69;;;-1.34;57.55
69402;BME280;56589;51.992;5.924;2023-03-01T02:12:34;102497.81;;;-1.36;57.36
69402;BME280;56589;51.992;5.924;2023-03-01T02:15:01;102502.97;;;-1.36;57.62
69402;BME280;56589;51.992;5.924;2023-03-01T02:17:27;102508.09;;;-1.36;57.79
69402;BME280;56589;51.992;5.924;2023-03-01T02:20:06;102505.53;;;-1.36;58.07
69402;BME280;56589;51.992;5.924;2023-03-01T02:22:46;102498.59;;;-1.40;57.54
69402;BME280;56589;51.992;5.924;2023-03-01T02:25:24;102491.72;;;-1.41;57.61
69402;BME280;56589;51.992;5.924;2023-03-01T02:27:58;102483.09;;;-1.43;57.63
69402;BME280;56589;51.992;5.924;2023-03-01T02:30:35;102489.94;;;-1.44;58.04
69402;BME280;56589;51.992;5.924;2023-03-01T02:33:03;102486.50;;;-1.44;57.92
69402;BME280;56589;51.992;5.924;2023-03-01T02:35:32;102492.50;;;-1.45;57.93
69402;BME280;56589;51.992;5.924;2023-03-01T02:38:01;102490.78;;;-1.46;57.84
69402;BME280;56589;51.992;5.924;2023-03-01T02:40:29;102491.63;;;-1.47;58.12
69402;BME280;56589;51.992;5.924;2023-03-01T02:42:59;102483.00;;;-1.49;57.79
69402;BME280;56589;51.992;5.924;2023-03-01T02:45:26;102488.16;;;-1.49;58.05
69402;BME280;56589;51.992;5.924;2023-03-01T02:47:59;102484.75;;;-1.48;58.27
69402;BME280;56589;51.992;5.924;2023-03-01T02:50:44;102485.63;;;-1.48;58.31
69402;BME280;56589;51.992;5.924;2023-03-01T02:53:27;102478.75;;;-1.49;58.33
69402;BME280;56589;51.992;5.924;2023-03-01T02:56:00;102479.63;;;-1.48;58.37
69402;BME280;56589;51.992;5.924;2023-03-01T02:58:26;102483.91;;;-1.47;58.43
69402;BME280;56589;51.992;5.924;2023-03-01T03:00:52;102479.63;;;-1.48;58.22
69402;BME280;56589;51.992;5.924;2023-03-01T03:03:21;102471.03;;;-1.47;58.51
69402;BME280;56589;51.992;5.924;2023-03-01T03:05:47;102464.16;;;-1.47;58.30
69402;BME280;56589;51.992;5.924;2023-03-01T03:08:14;102467.59;;;-1.46;58.49
69402;BME280;56589;51.992;5.924;2023-03-01T03:10:41;102463.31;;;-1.46;58.31
69402;BME280;56589;51.992;5.924;2023-03-01T03:13:08;102463.31;;;-1.46;58.47
69402;BME280;56589;51.992;5.924;2023-03-01T03:15:35;102463.31;;;-1.46;58.41
69402;BME280;56589;51.992;5.924;2023-03-01T03:18:03;102459.03;;;-1.45;58.64
69402;BME280;56589;51.992;5.924;2023-03-01T03:20:33;102461.59;;;-1.48;58.61
69402;BME280;56589;51.992;5.924;2023-03-01T03:23:00;102465.88;;;-1.49;58.48
69402;BME280;56589;51.992;5.924;2023-03-01T03:25:27;102458.97;;;-1.50;58.30
69402;BME280;56589;51.992;5.924;2023-03-01T03:27:54;102458.13;;;-1.49;58.62
69402;BME280;56589;51.992;5.924;2023-03-01T03:30:22;102453.81;;;-1.50;58.73
69402;BME280;56589;51.992;5.924;2023-03-01T03:32:49;102461.53;;;-1.50;58.90
69402;BME280;56589;51.992;5.924;2023-03-01T03:35:16;102458.94;;;-1.51;58.69
69402;BME280;56589;51.992;5.924;2023-03-01T03:37:44;102454.66;;;-1.51;58.63
69402;BME280;56589;51.992;5.924;2023-03-01T03:40:11;102457.25;;;-1.51;58.62
69402;BME280;56589;51.992;5.924;2023-03-01T03:42:37;102464.09;;;-1.51;58.69
69402;BME280;56589;51.992;5.924;2023-03-01T03:45:04;102458.94;;;-1.55;58.72
69402;BME280;56589;51.992;5.924;2023-03-01T03:47:30;102454.59;;;-1.56;58.74
69402;BME280;56589;51.992;5.924;2023-03-01T03:49:56;102449.44;;;-1.56;58.74
69402;BME280;56589;51.992;5.924;2023-03-01T03:52:22;102448.63;;;-1.53;58.85
69402;BME280;56589;51.992;5.924;2023-03-01T03:54:53;102449.50;;;-1.51;58.86
69402;BME280;56589;51.992;5.924;2023-03-01T03:57:19;102445.22;;;-1.50;58.80
69402;BME280;56589;51.992;5.924;2023-03-01T03:59:45;102449.53;;;-1.49;58.64
69402;BME280;56589;51.992;5.924;2023-03-01T04:02:11;102451.22;;;-1.51;58.86
69402;BME280;56589;51.992;5.924;2023-03-01T04:04:37;102451.22;;;-1.51;58.89
69402;BME280;56589;51.992;5.924;2023-03-01T04:07:02;102449.50;;;-1.52;59.27
69402;BME280;56589;51.992;5.924;2023-03-01T04:09:28;102452.91;;;-1.55;59.25
69402;BME280;56589;51.992;5.924;2023-03-01T04:11:57;102449.41;;;-1.59;59.05
69402;BME280;56589;51.992;5.924;2023-03-01T04:14:23;102448.56;;;-1.59;59.13
69402;BME280;56589;51.992;5.924;2023-03-01T04:16:48;102437.34;;;-1.63;59.27
69402;BME280;56589;51.992;5.924;2023-03-01T04:19:14;102440.78;;;-1.62;59.28
69402;BME280;56589;51.992;5.924;2023-03-01T04:21:40;102443.34;;;-1.64;59.38
69402;BME280;56589;51.992;5.924;2023-03-01T04:24:06;102443.34;;;-1.65;59.31
69402;BME280;56589;51.992;5.924;2023-03-01T04:26:32;102434.75;;;-1.66;59.20
69402;BME280;56589;51.992;5.924;2023-03-01T04:29:01;102438.19;;;-1.65;59.64
69402;BME280;56589;51.992;5.924;2023-03-01T04:31:27;102430.47;;;-1.64;59.46
69402;BME280;56589;51.992;5.924;2023-03-01T04:33:55;102438.19;;;-1.65;59.41
69402;BME280;56589;51.992;5.924;2023-03-01T04:36:23;102436.47;;;-1.65;59.86
69402;BME280;56589;51.992;5.924;2023-03-01T04:38:50;102431.31;;;-1.65;59.86
69402;BME280;56589;51.992;5.924;2023-03-01T04:41:18;102433.03;;;-1.67;59.68
69402;BME280;56589;51.992;5.924;2023-03-01T04:43:45;102433.88;;;-1.65;60.11
69402;BME280;56589;51.992;5.924;2023-03-01T04:46:16;102428.75;;;-1.63;59.61
69402;BME280;56589;51.992;5.924;2023-03-01T04:48:44;102422.78;;;-1.61;59.91
69402;BME280;56589;51.992;5.924;2023-03-01T04:51:11;102421.13;;;-1.56;60.07
69402;BME280;56589;51.992;5.924;2023-03-01T04:53:37;102418.53;;;-1.56;59.90
69402;BME280;56589;51.992;5.924;2023-03-01T04:56:03;102419.44;;;-1.52;59.55
69402;BME280;56589;51.992;5.924;2023-03-01T04:58:29;102412.59;;;-1.51;59.46
69402;BME280;56589;51.992;5.924;2023-03-01T05:00:56;102416.88;;;-1.50;59.45
69402;BME280;56589;51.992;5.924;2023-03-01T05:03:24;102412.59;;;-1.50;59.68
69402;BME280;56589;51.992;5.924;2023-03-01T05:05:51;102405.72;;;-1.51;59.57
69402;BME280;56589;51.992;5.924;2023-03-01T05:08:18;102401.41;;;-1.52;59.91
69402;BME280;56589;51.992;5.924;2023-03-01T05:10:48;102401.41;;;-1.52;59.68
69402;BME280;56589;51.992;5.924;2023-03-01T05:13:15;102398.00;;;-1.52;59.52
69402;BME280;56589;51.992;5.924;2023-03-01T05:15:42;102395.41;;;-1.52;59.41
69402;BME280;56589;51.992;5.924;2023-03-01T05:18:08;102397.13;;;-1.51;59.74
69402;BME280;56589;51.992;5.924;2023-03-01T05:20:37;102383.38;;;-1.53;59.54
69402;BME280;56589;51.992;5.924;2023-03-01T05:23:04;102379.03;;;-1.58;59.65
69402;BME280;56589;51.992;5.924;2023-03-01T05:25:31;102374.69;;;-1.62;59.93
69402;BME280;56589;51.992;5.924;2023-03-01T05:27:59;102368.66;;;-1.65;59.60
69402;BME280;56589;51.992;5.924;2023-03-01T05:30:24;102363.44;;;-1.68;59.93
69402;BME280;56589;51.992;5.924;2023-03-01T05:32:50;102372.88;;;-1.69;60.07
69402;BME280;56589;51.992;5.924;2023-03-01T05:35:17;102366.88;;;-1.69;59.87
69402;BME280;56589;51.992;5.924;2023-03-01T05:37:47;102365.16;;;-1.72;59.86
69402;BME280;56589;51.992;5.924;2023-03-01T05:40:16;102359.09;;;-1.74;60.10
69402;BME280;56589;51.992;5.924;2023-03-01T05:42:44;102362.50;;;-1.75;59.85
69402;BME280;56589;51.992;5.924;2023-03-01T05:45:11;102368.53;;;-1.74;60.43
69402;BME280;56589;51.992;5.924;2023-03-01T05:47:38;102366.78;;;-1.77;60.12
69402;BME280;56589;51.992;5.924;2023-03-01T05:50:05;102365.06;;;-1.78;60.17
69402;BME280;56589;51.992;5.924;2023-03-01T05:52:31;102356.44;;;-1.80;60.40
69402;BME280;56589;51.992;5.924;2023-03-01T05:54:59;102356.41;;;-1.83;60.32
69402;BME280;56589;51.992;5.924;2023-03-01T05:57:27;102359.00;;;-1.83;60.26
69402;BME280;56589;51.992;5.924;2023-03-01T05:59:54;102357.34;;;-1.79;60.29
69402;BME280;56589;51.992;5.924;2023-03-01T06:02:20;102348.75;;;-1.78;60.34
69402;BME280;56589;51.992;5.924;2023-03-01T06:04:45;102353.06;;;-1.76;60.61
69402;BME280;56589;51.992;5.924;2023-03-01T06:07:11;102356.50;;;-1.74;60.62
69402;BME280;56589;51.992;5.924;2023-03-01T06:09:37;102356.50;;;-1.74;60.61
69402;BME280;56589;51.992;5.924;2023-03-01T06:12:06;102358.28;;;-1.73;60.79
69402;BME280;56589;51.992;5.924;2023-03-01T06:14:32;102360.84;;;-1.73;60.60
69402;BME280;56589;51.992;5.924;2023-03-01T06:16:58;102361.72;;;-1.71;60.58
69402;BME280;56589;51.992;5.924;2023-03-01T06:19:23;102362.56;;;-1.72;60.77
69402;BME280;56589;51.992;5.924;2023-03-01T06:21:49;102368.56;;;-1.71;60.56
69402;BME280;56589;51.992;5.924;2023-03-01T06:24:15;102360.84;;;-1.73;60.60
69402;BME280;56589;51.992;5.924;2023-03-01T06:26:41;102365.09;;;-1.75;60.49
69402;BME280;56589;51.992;5.924;2023-03-01T06:29:09;102365.09;;;-1.75;60.88
69402;BME280;56589;51.992;5.924;2023-03-01T06:31:35;102370.28;;;-1.73;60.87
69402;BME280;56589;51.992;5.924;2023-03-01T06:34:01;102369.44;;;-1.72;60.58
69402;BME280;56589;51.992;5.924;2023-03-01T06:36:27;102357.41;;;-1.72;60.75
69402;BME280;56589;51.992;5.924;2023-03-01T06:38:53;102360.88;;;-1.70;60.94
69402;BME280;56589;51.992;5.924;2023-03-01T06:41:19;102356.56;;;-1.69;60.69
69402;BME280;56589;51.992;5.924;2023-03-01T06:43:44;102348.00;;;-1.70;60.93
69402;BME280;56589;51.992;5.924;2023-03-01T06:46:13;102349.72;;;-1.69;61.00
69402;BME280;56589;51.992;5.924;2023-03-01T06:48:39;102354.06;;;-1.65;61.23
69402;BME280;56589;51.992;5.924;2023-03-01T06:51:04;102361.00;;;-1.61;60.98
69402;BME280;56589;51.992;5.924;2023-03-01T06:53:30;102366.16;;;-1.59;61.16
69402;BME280;56589;51.992;5.924;2023-03-01T06:55:57;102373.97;;;-1.50;60.97
69402;BME280;56589;51.992;5.924;2023-03-01T06:58:23;102371.44;;;-1.45;61.43
69402;BME280;56589;51.992;5.924;2023-03-01T07:00:49;102377.53;;;-1.40;61.33
69402;BME280;56589;51.992;5.924;2023-03-01T07:03:18;102375.88;;;-1.35;61.03
69402;BME280;56589;51.992;5.924;2023-03-01T07:05:48;102372.44;;;-1.31;60.96
69402;BME280;56589;51.992;5.924;2023-03-01T07:08:14;102377.72;;;-1.23;61.28
69402;BME280;56589;51.992;5.924;2023-03-01T07:10:40;102378.63;;;-1.15;60.98
69402;BME280;56589;51.992;5.924;2023-03-01T07:13:06;102380.41;;;-1.10;61.08
69402;BME280;56589;51.992;5.924;2023-03-01T07:15:31;102380.47;;;-1.01;61.39
69402;BME280;56589;51.992;5.924;2023-03-01T07:17:57;102376.34;;;-0.85;61.23
69402;BME280;56589;51.992;5.924;2023-03-01T07:20:26;102370.44;;;-0.70;61.10
69402;BME280;56589;51.992;5.924;2023-03-01T07:22:52;102374.88;;;-0.54;60.69
69402;BME280;56589;51.992;5.924;2023-03-01T07:25:18;102368.94;;;-0.40;60.30
69402;BME280;56589;51.992;5.924;2023-03-01T07:27:49;102368.16;;;-0.29;60.52
69402;BME280;56589;51.992;5.924;2023-03-01T07:30:16;102367.38;;;-0.17;60.37
69402;BME280;56589;51.992;5.924;2023-03-01T07:32:42;102362.28;;;-0.08;59.84
69402;BME280;56589;51.992;5.924;2023-03-01T07:35:09;102358.00;;;0.00;59.90
69402;BME280;56589;51.992;5.924;2023-03-01T07:37:37;102352.88;;;0.08;60.00
69402;BME280;56589;51.992;5.924;2023-03-01T07:40:05;102356.38;;;0.18;59.70
69402;BME280;56589;51.992;5.924;2023-03-01T07:42:32;102358.97;;;0.27;59.43
69402;BME280;56589;51.992;5.924;2023-03-01T07:44:58;102363.31;;;0.32;59.37
69402;BME280;56589;51.992;5.924;2023-03-01T07:47:24;102359.88;;;0.41;59.19
69402;BME280;56589;51.992;5.924;2023-03-01T07:49:50;102370.25;;;0.52;58.88
69402;BME280;56589;51.992;5.924;2023-03-01T07:52:15;102373.75;;;0.61;58.74
69402;BME280;56589;51.992;5.924;2023-03-01T07:54:44;102372.88;;;0.72;58.77
69402;BME280;56589;51.992;5.924;2023-03-01T07:57:11;102364.31;;;0.80;58.35
69402;BME280;56589;51.992;5.924;2023-03-01T07:59:37;102376.38;;;0.91;58.68
69402;BME280;56589;51.992;5.924;2023-03-01T08:02:02;102370.34;;;0.96;58.04
69402;BME280;56589;51.992;5.924;2023-03-01T08:04:28;102368.66;;;1.03;58.06
69402;BME280;56589;51.992;5.924;2023-03-01T08:06:55;102372.09;;;1.11;57.72
69402;BME280;56589;51.992;5.924;2023-03-01T08:09:21;102381.59;;;1.17;57.81
69402;BME280;56589;51.992;5.924;2023-03-01T08:11:49;102385.88;;;1.19;57.34
69402;BME280;56589;51.992;5.924;2023-03-01T08:14:15;102385.91;;;1.22;56.73
69402;BME280;56589;51.992;5.924;2023-03-01T08:16:41;102385.91;;;1.24;57.06
69402;BME280;56589;51.992;5.924;2023-03-01T08:19:09;102385.03;;;1.28;56.66
69402;BME280;56589;51.992;5.924;2023-03-01T08:21:36;102391.94;;;1.35;56.91
69402;BME280;56589;51.992;5.924;2023-03-01T08:24:05;102386.75;;;1.41;56.73
69402;BME280;56589;51.992;5.924;2023-03-01T08:26:32;102389.31;;;1.50;56.83
69402;BME280;56589;51.992;5.924;2023-03-01T08:29:02;102382.44;;;1.55;56.81
69402;BME280;56589;51.992;5.924;2023-03-01T08:31:31;102385.03;;;1.64;56.89
69402;BME280;56589;51.992;5.924;2023-03-01T08:34:00;102365.16;;;1.71;56.31
69402;BME280;56589;51.992;5.924;2023-03-01T08:36:30;102374.63;;;1.78;56.42
69402;BME280;56589;51.992;5.924;2023-03-01T08:38:58;102370.28;;;1.88;56.04
69402;BME280;56589;51.992;5.924;2023-03-01T08:41:25;102368.56;;;1.96;55.87
69402;BME280;56589;51.992;5.924;2023-03-01T08:43:51;102366.81;;;2.03;55.66
69402;BME280;56589;51.992;5.924;2023-03-01T08:46:20;102358.97;;;2.12;55.26
69402;BME280;56589;51.992;5.924;2023-03-01T08:48:48;102363.28;;;2.17;54.67
69402;BME280;56589;51.992;5.924;2023-03-01T08:51:15;102351.19;;;2.21;54.29
69402;BME280;56589;51.992;5.924;2023-03-01T08:53:43;102358.94;;;2.27;54.11
69402;BME280;56589;51.992;5.924;2023-03-01T08:56:10;102363.22;;;2.34;54.43
69402;BME280;56589;51.992;5.924;2023-03-01T08:58:36;102351.97;;;2.40;54.01
69402;BME280;56589;51.992;5.924;2023-03-01T09:01:07;102357.13;;;2.43;54.30
69402;BME280;56589;51.992;5.924;2023-03-01T09:03:36;102346.75;;;2.46;53.66
69402;BME280;56589;51.992;5.924;2023-03-01T09:06:03;102351.06;;;2.50;53.62
69402;BME280;56589;51.992;5.924;2023-03-01T09:08:30;102353.63;;;2.48;53.13
69402;BME280;56589;51.992;5.924;2023-03-01T09:10:56;102344.13;;;2.50;52.91
69402;BME280;56589;51.992;5.924;2023-03-01T09:13:22;102344.97;;;2.53;52.65
69402;BME280;56589;51.992;5.924;2023-03-01T09:15:48;102340.66;;;2.52;52.12
69402;BME280;56589;51.992;5.924;2023-03-01T09:18:14;102334.63;;;2.51;52.21
69402;BME280;56589;51.992;5.924;2023-03-01T09:20:42;102340.63;;;2.55;52.74
69402;BME280;56589;51.992;5.924;2023-03-01T09:23:08;102344.94;;;2.59;51.96
69402;BME280;56589;51.992;5.924;2023-03-01T09:25:34;102335.44;;;2.62;51.92
69402;BME280;56589;51.992;5.924;2023-03-01T09:28:00;102344.88;;;2.66;51.29
69402;BME280;56589;51.992;5.924;2023-03-01T09:30:26;102341.41;;;2.70;51.58
69402;BME280;56589;51.992;5.924;2023-03-01T09:32:52;102339.66;;;2.75;51.45
69402;BME280;56589;51.992;5.924;2023-03-01T09:35:18;102333.56;;;2.80;50.84
69402;BME280;56589;51.992;5.924;2023-03-01T09:37:46;102326.63;;;2.80;50.87
69402;BME280;56589;51.992;5.924;2023-03-01T09:40:15;102325.78;;;2.83;50.98
69402;BME280;56589;51.992;5.924;2023-03-01T09:42:55;102328.31;;;2.86;49.51
69402;BME280;56589;51.992;5.924;2023-03-01T09:45:30;102325.75;;;2.84;50.28
69402;BME280;56589;51.992;5.924;2023-03-01T09:48:01;102330.91;;;2.86;51.05
69402;BME280;56589;51.992;5.924;2023-03-01T09:50:34;102325.72;;;2.90;49.65
69402;BME280;56589;51.992;5.924;2023-03-01T09:53:10;102323.06;;;2.96;51.13
69402;BME280;56589;51.992;5.924;2023-03-01T09:55:42;102315.22;;;3.04;50.64
69402;BME280;56589;51.992;5.924;2023-03-01T09:58:31;102314.38;;;3.02;49.55
69402;BME280;56589;51.992;5.924;2023-03-01T10:01:06;102305.69;;;3.08;50.77
69402;BME280;56589;51.992;5.924;2023-03-01T10:04:00;102309.97;;;3.12;50.11
69402;BME280;56589;51.992;5.924;2023-03-01T10:06:36;102298.72;;;3.11;49.95
69402;BME280;56589;51.992;5.924;2023-03-01T10:09:12;102304.75;;;3.15;49.55
69402;BME280;56589;51.992;5.924;2023-03-01T10:11:44;102314.22;;;3.20;49.31
69402;BME280;56589;51.992;5.924;2023-03-01T10:14:24;102296.00;;;3.23;49.32
69402;BME280;56589;51.992;5.924;2023-03-01T10:17:02;102305.50;;;3.30;49.59
69402;BME280;56589;51.992;5.924;2023-03-01T10:19:32;102293.31;;;3.34;49.63
69402;BME280;56589;51.992;5.924;2023-03-01T10:22:09;102312.28;;;3.41;49.08
69402;BME280;56589;51.992;5.924;2023-03-01T10:24:43;102295.84;;;3.40;47.02
69402;BME280;56589;51.992;5.924;2023-03-01T10:27:15;102288.13;;;3.37;48.90
69402;BME280;56589;51.992;5.924;2023-03-01T10:29:50;102279.34;;;3.47;48.85
69402;BME280;56589;51.992;5.924;2023-03-01T10:32:25;102280.94;;;3.59;48.89
69402;BME280;56589;51.992;5.924;2023-03-01T10:34:52;102281.75;;;3.64;48.50
69402;BME280;56589;51.992;5.924;2023-03-01T10:37:18;102273.91;;;3.69;48.38
69402;BME280;56589;51.992;5.924;2023-03-01T10:40:00;102272.09;;;3.75;48.58
69402;BME280;56589;51.992;5.924;2023-03-01T10:42:29;102274.66;;;3.80;47.58
69402;BME280;56589;51.992;5.924;2023-03-01T10:44:57;102265.16;;;3.77;48.28
69402;BME280;56589;51.992;5.924;2023-03-01T10:47:39;102265.94;;;3.84;47.76
69402;BME280;56589;51.992;5.924;2023-03-01T10:50:18;102265.88;;;3.89;47.33
69402;BME280;56589;51.992;5.924;2023-03-01T10:52:58;102262.25;;;4.03;47.58
69402;BME280;56589;51.992;5.924;2023-03-01T10:55:31;102257.78;;;4.11;47.40
69402;BME280;56589;51.992;5.924;2023-03-01T10:58:12;102256.78;;;4.22;47.66
69402;BME280;56589;51.992;5.924;2023-03-01T11:00:48;102254.09;;;4.26;47.12
69402;BME280;56589;51.992;5.924;2023-03-01T11:03:18;102254.91;;;4.31;46.67
69402;BME280;56589;51.992;5.924;2023-03-01T11:05:53;102258.31;;;4.36;46.71
69402;BME280;56589;51.992;5.924;2023-03-01T11:08:39;102256.38;;;4.49;45.76
69402;BME280;56589;51.992;5.924;2023-03-01T11:11:24;102257.97;;;4.58;45.57
69402;BME280;56589;51.992;5.924;2023-03-01T11:13:57;102246.63;;;4.62;45.96
69402;BME280;56589;51.992;5.924;2023-03-01T11:16:31;102246.59;;;4.65;46.37
69402;BME280;56589;51.992;5.924;2023-03-01T11:19:04;102249.00;;;4.76;46.45
69402;BME280;56589;51.992;5.924;2023-03-01T11:21:44;102250.56;;;4.87;46.08
69402;BME280;56589;51.992;5.924;2023-03-01T11:24:23;102257.28;;;5.01;46.07
69402;BME280;56589;51.992;5.924;2023-03-01T11:27:00;102254.59;;;5.07;46.14
69402;BME280;56589;51.992;5.924;2023-03-01T11:29:33;102247.66;;;5.06;45.17
69402;BME280;56589;51.992;5.924;2023-03-01T11:32:07;102258.81;;;5.14;45.36
69402;BME280;56589;51.992;5.924;2023-03-01T11:34:42;102257.00;;;5.17;45.11
69402;BME280;56589;51.992;5.924;2023-03-01T11:37:21;102236.13;;;5.21;45.40
69402;BME280;56589;51.992;5.924;2023-03-01T11:40:03;102235.91;;;5.33;45.34
69402;BME280;56589;51.992;5.924;2023-03-01T11:42:57;102242.63;;;5.43;42.75
69402;BME280;56589;51.992;5.924;2023-03-01T11:45:38;102237.63;;;5.34;42.31
69402;BME280;56589;51.992;5.924;2023-03-01T11:48:38;102236.91;;;5.24;43.36
69402;BME280;56589;51.992;5.924;2023-03-01T11:51:20;102228.13;;;5.30;44.78
69402;BME280;56589;51.992;5.924;2023-03-01T11:54:09;102230.56;;;5.40;44.44
69402;BME280;56589;51.992;5.924;2023-03-01T11:56:46;102226.94;;;5.47;43.85
69402;BME280;56589;51.992;5.924;2023-03-01T11:59:37;102223.50;;;5.44;42.51
69402;BME280;56589;51.992;5.924;2023-03-01T12:02:38;102232.25;;;5.41;44.24
69402;BME280;56589;51.992;5.924;2023-03-01T12:05:42;102232.13;;;5.47;42.87
69402;BME280;56589;51.992;5.924;2023-03-01T12:08:24;102233.81;;;5.50;43.91
69402;BME280;56589;51.992;5.924;2023-03-01T12:11:03;102229.34;;;5.57;43.45
69402;BME280;56589;51.992;5.924;2023-03-01T12:13:56;102214.47;;;5.62;43.02
69402;BME280;56589;51.992;5.924;2023-03-01T12:16:58;102223.97;;;5.66;43.61
69402;BME280;56589;51.992;5.924;2023-03-01T12:20:02;102208.19;;;5.72;43.55
69402;BME280;56589;51.992;5.924;2023-03-01T12:22:48;102213.31;;;5.75;42.93
69402;BME280;56589;51.992;5.924;2023-03-01T12:25:37;102205.59;;;5.72;42.56
69402;BME280;56589;51.992;5.924;2023-03-01T12:28:24;102205.56;;;5.73;42.50
69402;BME280;56589;51.992;5.924;2023-03-01T12:31:31;102188.97;;;5.78;42.96
69402;BME280;56589;51.992;5.924;2023-03-01T12:34:14;102191.34;;;5.87;42.01
69402;BME280;56589;51.992;5.924;2023-03-01T12:37:07;102191.34;;;5.88;42.52
69402;BME280;56589;51.992;5.924;2023-03-01T12:39:51;102188.75;;;5.88;42.47
69402;BME280;56589;51.992;5.924;2023-03-01T12:42:44;102184.25;;;5.93;42.46
69402;BME280;56589;51.992;5.924;2023-03-01T12:45:34;102179.63;;;6.08;42.73
69402;BME280;56589;51.992;5.924;2023-03-01T12:48:24;102178.63;;;6.13;40.95
69402;BME280;56589;51.992;5.924;2023-03-01T12:51:07;102187.34;;;6.12;41.03
69402;BME280;56589;51.992;5.924;2023-03-01T12:53:40;102182.13;;;6.11;40.33
69402;BME280;56589;51.992;5.924;2023-03-01T12:56:11;102176.06;;;6.10;40.40
69402;BME280;56589;51.992;5.924;2023-03-01T12:58:50;102164.72;;;6.13;40.48
69402;BME280;56589;51.992;5.924;2023-03-01T13:01:33;102152.22;;;6.27;41.18
69402;BME280;56589;51.992;5.924;2023-03-01T13:04:15;102162.25;;;6.42;40.68
69402;BME280;56589;51.992;5.924;2023-03-01T13:07:13;102142.25;;;6.43;39.09
69402;BME280;56589;51.992;5.924;2023-03-01T13:09:54;102143.97;;;6.44;40.67
69402;BME280;56589;51.992;5.924;2023-03-01T13:13:02;102135.94;;;6.51;39.54
69402;BME280;56589;51.992;5.924;2023-03-01T13:15:37;102128.84;;;6.57;40.44